Nearby METAR Reports

Here are local weather reports from nearby weather stations and airports.

KHFD - Hartford/Brainar, Connecticut, USA
Distance from station: NE 5mi, 8km
Updated: Fri, 07/20/2018 9:53am EDT
Clear
Clear
 Wind from NNE
Wind: NNE 3 mph , 6 km/h
Temperature: 75°F , 24°C
Dew Point: 61°F , 16°C
Humidity: 61%
Barometer: 30.17 inHg , 1021.7 hPa
Clouds: Clear
Visibility: 10 miles , 16 km
2018/07/20 13:53 KHFD 201353Z 03003KT 10SM CLR 24/16 A3017 RMK AO2 SLP217 T02390156
KMMK - Meriden, Connecticut, USA
Distance from station: SSW 13mi, 21km
Updated: Fri, 07/20/2018 9:53am EDT
Clear
Clear
 Wind from calm
Wind: Calm
Temperature: 75°F , 24°C
Dew Point: 61°F , 16°C
Humidity: 61%
Barometer: 30.18 inHg , 1022 hPa
Clouds: Clear
Visibility: 10 miles , 16 km
2018/07/20 13:53 KMMK 201353Z AUTO 00000KT 10SM CLR 24/16 A3018 RMK AO2 SLP219 T02390156 $
 
KBDL - Windsor Locks, Connecticut, USA
Distance from station: N 17mi, 28km
Updated: Fri, 07/20/2018 9:51am EDT
Clear
Clear
 Wind from calm
Wind: Calm
Temperature: 73°F , 23°C
Dew Point: 57°F , 14°C
Humidity: 57%
Barometer: 30.18 inHg , 1022 hPa
Clouds: Clear
Visibility: 10 miles , 16 km
2018/07/20 13:51 KBDL 201351Z 00000KT 10SM CLR 23/14 A3018 RMK AO2 SLP219 T02330139
KSNC - Chester, Connecticut, USA
Distance from station: SSE 24mi, 38km
Updated: Fri, 07/20/2018 10:15am EDT
Clear
Clear
 Wind from calm
Wind: Calm
Temperature: 79°F , 26°C
Dew Point: 55°F , 13°C
Humidity: 45%
Barometer: 30.19 inHg , 1022.4 hPa
Clouds: Clear
Visibility: 10 miles , 16 km
2018/07/20 14:15 KSNC 201415Z AUTO 00000KT 10SM CLR 26/13 A3019 RMK AO2
 
KOXC - Oxford/Waterbury, Connecticut, USA
Distance from station: SW 26mi, 42km
Updated: Fri, 07/20/2018 9:51am EDT
Clear
Clear
 Wind from WSW
Wind: WSW 3 mph , 6 km/h
Temperature: 73°F , 23°C
Dew Point: 61°F , 16°C
Humidity: 65%
Barometer: 30.21 inHg , 1023 hPa
Clouds: Clear
Visibility: 10 miles , 16 km
2018/07/20 13:51 KOXC 201351Z 25003KT 10SM CLR 23/16 A3021 RMK AO2 SLP238 T02280161
KIJD - Willimantic, Connecticut, USA
Distance from station: E 28mi, 45km
Updated: Fri, 07/20/2018 9:52am EDT
Clear
Clear
 Wind from calm
Wind: Calm
Temperature: 75°F , 24°C
Dew Point: 63°F , 17°C
Humidity: 65%
Barometer: 30.18 inHg , 1022 hPa
Clouds: Clear
Visibility: 10 miles , 16 km
2018/07/20 13:52 KIJD 201352Z AUTO 00000KT 10SM CLR 24/17 A3018 RMK AO2 SLP218 T02390172
 
KHVN - New Haven/Tweed, Connecticut, USA
Distance from station: SSW 30mi, 48km
Updated: Fri, 07/20/2018 9:53am EDT
Clear
Clear
 Wind from S
Wind: S 5 mph , 7 km/h
Temperature: 77°F , 25°C
Dew Point: 64°F , 18°C
Humidity: 65%
Barometer: 30.18 inHg , 1022 hPa
Clouds: Clear
Visibility: 10 miles , 16 km
2018/07/20 13:53 KHVN 201353Z 19004KT 10SM CLR 25/18 A3018 RMK AO2 SLP219 T02500178
KBAF - Westfield, Massachusetts, USA
Distance from station: 0 33mi, 54km
Updated: Fri, 07/20/2018 9:53am EDT
Clear
Clear
 Wind from calm
Wind: Calm
Temperature: 73°F , 23°C
Dew Point: 59°F , 15°C
Humidity: 61%
Barometer: 30.18 inHg , 1022 hPa
Clouds: Clear
Visibility: 10 miles , 16 km
2018/07/20 13:53 KBAF 201353Z 00000KT 10SM CLR 23/15 A3018 RMK AO2 SLP220 T02280150
 
KCEF - Chicopee/Westove, Massachusetts, USA
Distance from station: NNE 37mi, 60km
Updated: Fri, 07/20/2018 9:56am EDT
Few Clouds
Few Clouds
 Wind from calm
Wind: Calm
Temperature: 72°F , 22°C
Dew Point: 57°F , 14°C
Humidity: 61%
Barometer: 30.17 inHg , 1021.7 hPa
Clouds: Few Clouds
Visibility: 10 miles , 16 km
Cloud details: Few Clouds 2500 ft
2018/07/20 13:56 KCEF 201356Z 00000KT 10SM FEW025 22/14 A3017 RMK AO2A SLP222 T02190138
KBDR - Bridgeport, Connecticut, USA
Distance from station: SSW 42mi, 67km
Updated: Fri, 07/20/2018 9:52am EDT
Clear
Clear
 Wind from E
Wind: E 7 mph , 11 km/h
Temperature: 73°F , 23°C
Dew Point: 64°F , 18°C
Humidity: 74%
Barometer: 30.18 inHg , 1022 hPa
Clouds: Clear
Visibility: 10 miles , 16 km
2018/07/20 13:52 KBDR 201352Z 10006KT 10SM CLR 23/18 A3018 RMK AO2 SLP218 T02330178
 
KGON - Groton/New Londo, Connecticut, USA
Distance from station: SE 42mi, 68km
Updated: Fri, 07/20/2018 9:56am EDT
Clear
Clear
 Wind from SSW
Wind: SSW 7 mph , 11 km/h
Temperature: 73°F , 23°C
Dew Point: 64°F , 18°C
Humidity: 74%
Barometer: 30.17 inHg , 1021.7 hPa
Clouds: Clear
Visibility: 10 miles , 16 km
2018/07/20 13:56 KGON 201356Z 20006KT 10SM CLR 23/18 A3017 RMK AO2 SLP218 T02330178 $
KDXR - Danbury, Connecticut, USA
Distance from station: WSW 45mi, 73km
Updated: Fri, 07/20/2018 9:53am EDT
Clear
Clear
 Wind from calm
Wind: Calm
Temperature: 75°F , 24°C
Dew Point: 63°F , 17°C
Humidity: 65%
Barometer: 30.20 inHg , 1022.7 hPa
Clouds: Clear
Visibility: 10 miles , 16 km
2018/07/20 13:53 KDXR 201353Z 00000KT 10SM CLR 24/17 A3020 RMK AO2 SLP222 T02390172